sensor_id;sensor_type;location;lat;lon;timestamp;temperature;humidity
21246;DHT22;10781;50.928;4.440;2022-11-20T00:01:14;6.30;99.90
21246;DHT22;10781;50.928;4.440;2022-11-20T00:03:40;6.40;99.90
21246;DHT22;10781;50.928;4.440;2022-11-20T00:06:09;6.40;99.90
21246;DHT22;10781;50.928;4.440;2022-11-20T00:08:35;6.20;99.90
21246;DHT22;10781;50.928;4.440;2022-11-20T00:11:11;6.00;99.90
21246;DHT22;10781;50.928;4.440;2022-11-20T00:13:37;5.80;99.90
21246;DHT22;10781;50.928;4.440;2022-11-20T00:16:05;6.00;99.90
21246;DHT22;10781;50.928;4.440;2022-11-20T00:18:32;6.00;99.90
21246;DHT22;10781;50.928;4.440;2022-11-20T00:21:03;6.20;99.90
21246;DHT22;10781;50.928;4.440;2022-11-20T00:23:30;6.50;99.90
21246;DHT22;10781;50.928;4.440;2022-11-20T00:25:55;6.80;99.90
21246;DHT22;10781;50.928;4.440;2022-11-20T00:28:21;6.80;99.90
21246;DHT22;10781;50.928;4.440;2022-11-20T00:30:47;6.60;99.90
21246;DHT22;10781;50.928;4.440;2022-11-20T00:33:13;6.30;99.90
21246;DHT22;10781;50.928;4.440;2022-11-20T00:35:38;6.40;99.90
21246;DHT22;10781;50.928;4.440;2022-11-20T00:38:04;6.80;99.90
21246;DHT22;10781;50.928;4.440;2022-11-20T00:40:29;7.00;99.90
21246;DHT22;10781;50.928;4.440;2022-11-20T00:42:55;6.90;99.90
21246;DHT22;10781;50.928;4.440;2022-11-20T00:45:21;6.90;99.90
21246;DHT22;10781;50.928;4.440;2022-11-20T00:47:46;6.70;99.90
21246;DHT22;10781;50.928;4.440;2022-11-20T00:50:12;6.50;99.90
21246;DHT22;10781;50.928;4.440;2022-11-20T00:52:37;6.30;99.90
21246;DHT22;10781;50.928;4.440;2022-11-20T00:55:03;6.20;99.90
21246;DHT22;10781;50.928;4.440;2022-11-20T00:57:29;5.80;99.90
21246;DHT22;10781;50.928;4.440;2022-11-20T00:59:54;5.60;99.90
21246;DHT22;10781;50.928;4.440;2022-11-20T01:02:20;5.70;99.90
21246;DHT22;10781;50.928;4.440;2022-11-20T01:04:46;5.80;99.90
21246;DHT22;10781;50.928;4.440;2022-11-20T01:07:12;5.90;99.90
21246;DHT22;10781;50.928;4.440;2022-11-20T01:09:37;6.00;99.90
21246;DHT22;10781;50.928;4.440;2022-11-20T01:12:03;6.40;99.90
21246;DHT22;10781;50.928;4.440;2022-11-20T01:14:29;6.70;99.90
21246;DHT22;10781;50.928;4.440;2022-11-20T01:16:54;6.90;99.90
21246;DHT22;10781;50.928;4.440;2022-11-20T01:19:22;7.00;99.90
21246;DHT22;10781;50.928;4.440;2022-11-20T01:21:50;6.60;99.90
21246;DHT22;10781;50.928;4.440;2022-11-20T01:24:18;6.40;99.90
21246;DHT22;10781;50.928;4.440;2022-11-20T01:26:45;6.30;99.90
21246;DHT22;10781;50.928;4.440;2022-11-20T01:29:21;6.50;99.90
21246;DHT22;10781;50.928;4.440;2022-11-20T01:31:47;6.70;99.90
21246;DHT22;10781;50.928;4.440;2022-11-20T01:34:16;6.90;99.90
21246;DHT22;10781;50.928;4.440;2022-11-20T01:36:42;6.80;99.90
21246;DHT22;10781;50.928;4.440;2022-11-20T01:39:23;7.00;99.90
21246;DHT22;10781;50.928;4.440;2022-11-20T01:41:51;7.10;99.90
21246;DHT22;10781;50.928;4.440;2022-11-20T01:50:22;7.20;99.90
21246;DHT22;10781;50.928;4.440;2022-11-20T01:52:50;7.10;99.90
21246;DHT22;10781;50.928;4.440;2022-11-20T01:55:20;6.60;99.90
21246;DHT22;10781;50.928;4.440;2022-11-20T01:57:48;6.70;99.90
21246;DHT22;10781;50.928;4.440;2022-11-20T02:00:16;6.30;99.90
21246;DHT22;10781;50.928;4.440;2022-11-20T02:02:45;6.40;99.90
21246;DHT22;10781;50.928;4.440;2022-11-20T02:08:20;6.90;99.90
21246;DHT22;10781;50.928;4.440;2022-11-20T02:10:50;7.00;99.90
21246;DHT22;10781;50.928;4.440;2022-11-20T02:13:16;7.00;99.90
21246;DHT22;10781;50.928;4.440;2022-11-20T02:16:02;6.70;99.90
21246;DHT22;10781;50.928;4.440;2022-11-20T02:18:28;6.30;99.90
21246;DHT22;10781;50.928;4.440;2022-11-20T02:26:20;6.90;99.90
21246;DHT22;10781;50.928;4.440;2022-11-20T02:28:46;7.00;99.90
21246;DHT22;10781;50.928;4.440;2022-11-20T02:31:12;6.90;99.90
21246;DHT22;10781;50.928;4.440;2022-11-20T02:33:37;6.80;99.90
21246;DHT22;10781;50.928;4.440;2022-11-20T02:36:03;6.80;99.90
21246;DHT22;10781;50.928;4.440;2022-11-20T02:38:29;6.80;99.90
21246;DHT22;10781;50.928;4.440;2022-11-20T02:40:55;6.80;99.90
21246;DHT22;10781;50.928;4.440;2022-11-20T02:43:20;6.80;99.90
21246;DHT22;10781;50.928;4.440;2022-11-20T02:45:46;6.60;99.90
21246;DHT22;10781;50.928;4.440;2022-11-20T02:48:12;6.60;99.90
21246;DHT22;10781;50.928;4.440;2022-11-20T02:50:38;6.70;99.90
21246;DHT22;10781;50.928;4.440;2022-11-20T02:53:05;6.70;99.90
21246;DHT22;10781;50.928;4.440;2022-11-20T02:55:31;6.50;99.90
21246;DHT22;10781;50.928;4.440;2022-11-20T02:57:57;6.60;99.90
21246;DHT22;10781;50.928;4.440;2022-11-20T03:00:22;6.70;99.90
21246;DHT22;10781;50.928;4.440;2022-11-20T03:02:48;6.80;99.90
21246;DHT22;10781;50.928;4.440;2022-11-20T03:05:13;6.80;99.90
21246;DHT22;10781;50.928;4.440;2022-11-20T03:07:39;6.70;99.90
21246;DHT22;10781;50.928;4.440;2022-11-20T03:10:05;6.70;99.90
21246;DHT22;10781;50.928;4.440;2022-11-20T03:12:31;6.70;99.90
21246;DHT22;10781;50.928;4.440;2022-11-20T03:14:56;6.70;99.90
21246;DHT22;10781;50.928;4.440;2022-11-20T03:17:22;6.70;99.90
21246;DHT22;10781;50.928;4.440;2022-11-20T03:19:51;6.70;99.90
21246;DHT22;10781;50.928;4.440;2022-11-20T03:22:16;6.70;99.90
21246;DHT22;10781;50.928;4.440;2022-11-20T03:24:42;6.60;99.90
21246;DHT22;10781;50.928;4.440;2022-11-20T03:27:08;6.30;99.90
21246;DHT22;10781;50.928;4.440;2022-11-20T03:29:35;6.20;99.90
21246;DHT22;10781;50.928;4.440;2022-11-20T03:32:00;6.00;99.90
21246;DHT22;10781;50.928;4.440;2022-11-20T03:34:26;5.90;99.90
21246;DHT22;10781;50.928;4.440;2022-11-20T03:36:52;6.20;99.90
21246;DHT22;10781;50.928;4.440;2022-11-20T03:39:17;6.40;99.90
21246;DHT22;10781;50.928;4.440;2022-11-20T03:41:43;6.20;99.90
21246;DHT22;10781;50.928;4.440;2022-11-20T03:44:10;6.30;99.90
21246;DHT22;10781;50.928;4.440;2022-11-20T03:46:36;6.50;99.90
21246;DHT22;10781;50.928;4.440;2022-11-20T03:49:02;6.50;99.90
21246;DHT22;10781;50.928;4.440;2022-11-20T03:51:32;6.60;99.90
21246;DHT22;10781;50.928;4.440;2022-11-20T03:54:05;6.60;99.90
21246;DHT22;10781;50.928;4.440;2022-11-20T03:56:33;6.60;99.90
21246;DHT22;10781;50.928;4.440;2022-11-20T03:58:59;6.70;99.90
21246;DHT22;10781;50.928;4.440;2022-11-20T04:01:30;6.60;99.90
21246;DHT22;10781;50.928;4.440;2022-11-20T04:03:57;6.40;99.90
21246;DHT22;10781;50.928;4.440;2022-11-20T04:06:27;6.50;99.90
21246;DHT22;10781;50.928;4.440;2022-11-20T04:08:57;6.60;99.90
21246;DHT22;10781;50.928;4.440;2022-11-20T04:11:28;6.60;99.90
21246;DHT22;10781;50.928;4.440;2022-11-20T04:13:56;6.60;99.90
21246;DHT22;10781;50.928;4.440;2022-11-20T04:16:24;6.60;99.90
21246;DHT22;10781;50.928;4.440;2022-11-20T04:18:55;6.70;99.90
21246;DHT22;10781;50.928;4.440;2022-11-20T04:21:25;6.40;99.90
21246;DHT22;10781;50.928;4.440;2022-11-20T04:23:51;6.40;99.90
21246;DHT22;10781;50.928;4.440;2022-11-20T04:26:18;6.20;99.90
21246;DHT22;10781;50.928;4.440;2022-11-20T04:28:44;6.20;99.90
21246;DHT22;10781;50.928;4.440;2022-11-20T04:31:19;6.20;99.90
21246;DHT22;10781;50.928;4.440;2022-11-20T04:33:45;6.00;99.90
21246;DHT22;10781;50.928;4.440;2022-11-20T04:36:15;6.00;99.90
21246;DHT22;10781;50.928;4.440;2022-11-20T04:38:41;6.20;99.90
21246;DHT22;10781;50.928;4.440;2022-11-20T04:41:17;6.20;99.90
21246;DHT22;10781;50.928;4.440;2022-11-20T04:43:50;6.20;99.90
21246;DHT22;10781;50.928;4.440;2022-11-20T04:46:17;6.00;99.90
21246;DHT22;10781;50.928;4.440;2022-11-20T04:48:43;5.80;99.90
21246;DHT22;10781;50.928;4.440;2022-11-20T04:51:12;5.80;99.90
21246;DHT22;10781;50.928;4.440;2022-11-20T04:53:38;5.90;99.90
21246;DHT22;10781;50.928;4.440;2022-11-20T04:56:06;5.90;99.90
21246;DHT22;10781;50.928;4.440;2022-11-20T04:58:33;6.10;99.90
21246;DHT22;10781;50.928;4.440;2022-11-20T05:01:07;6.50;99.90
21246;DHT22;10781;50.928;4.440;2022-11-20T05:03:34;6.50;99.90
21246;DHT22;10781;50.928;4.440;2022-11-20T05:06:01;6.50;99.90
21246;DHT22;10781;50.928;4.440;2022-11-20T05:08:27;6.80;99.90
21246;DHT22;10781;50.928;4.440;2022-11-20T05:10:52;7.00;99.90
21246;DHT22;10781;50.928;4.440;2022-11-20T05:13:18;7.00;99.90
21246;DHT22;10781;50.928;4.440;2022-11-20T05:15:44;7.20;99.90
21246;DHT22;10781;50.928;4.440;2022-11-20T05:18:10;7.40;99.90
21246;DHT22;10781;50.928;4.440;2022-11-20T05:20:35;7.40;99.90
21246;DHT22;10781;50.928;4.440;2022-11-20T05:23:02;7.40;99.90
21246;DHT22;10781;50.928;4.440;2022-11-20T05:25:28;7.10;99.90
21246;DHT22;10781;50.928;4.440;2022-11-20T05:27:53;7.10;99.90
21246;DHT22;10781;50.928;4.440;2022-11-20T05:30:19;7.00;99.90
21246;DHT22;10781;50.928;4.440;2022-11-20T05:32:48;7.00;99.90
21246;DHT22;10781;50.928;4.440;2022-11-20T05:35:17;6.50;99.90
21246;DHT22;10781;50.928;4.440;2022-11-20T05:37:42;6.20;99.90
21246;DHT22;10781;50.928;4.440;2022-11-20T05:40:08;6.20;99.90
21246;DHT22;10781;50.928;4.440;2022-11-20T05:42:34;6.10;99.90
21246;DHT22;10781;50.928;4.440;2022-11-20T05:45:02;6.00;99.90
21246;DHT22;10781;50.928;4.440;2022-11-20T05:47:32;5.90;99.90
21246;DHT22;10781;50.928;4.440;2022-11-20T05:49:58;5.90;99.90
21246;DHT22;10781;50.928;4.440;2022-11-20T05:52:24;5.90;99.90
21246;DHT22;10781;50.928;4.440;2022-11-20T05:54:49;5.80;99.90
21246;DHT22;10781;50.928;4.440;2022-11-20T05:57:15;5.80;99.90
21246;DHT22;10781;50.928;4.440;2022-11-20T05:59:41;5.70;99.90
21246;DHT22;10781;50.928;4.440;2022-11-20T06:02:07;6.20;99.90
21246;DHT22;10781;50.928;4.440;2022-11-20T06:04:32;6.60;99.90
21246;DHT22;10781;50.928;4.440;2022-11-20T06:06:58;6.70;99.90
21246;DHT22;10781;50.928;4.440;2022-11-20T06:09:23;6.40;99.90
21246;DHT22;10781;50.928;4.440;2022-11-20T06:11:52;6.00;99.90
21246;DHT22;10781;50.928;4.440;2022-11-20T06:14:17;5.80;99.90
21246;DHT22;10781;50.928;4.440;2022-11-20T06:16:43;5.60;99.90
21246;DHT22;10781;50.928;4.440;2022-11-20T06:19:08;5.50;99.90
21246;DHT22;10781;50.928;4.440;2022-11-20T06:21:34;5.60;99.90
21246;DHT22;10781;50.928;4.440;2022-11-20T06:24:00;5.60;99.90
21246;DHT22;10781;50.928;4.440;2022-11-20T06:26:26;5.50;99.90
21246;DHT22;10781;50.928;4.440;2022-11-20T06:28:53;5.30;99.90
21246;DHT22;10781;50.928;4.440;2022-11-20T06:31:23;5.20;99.90
21246;DHT22;10781;50.928;4.440;2022-11-20T06:33:49;5.30;99.90
21246;DHT22;10781;50.928;4.440;2022-11-20T06:36:17;5.30;99.90
21246;DHT22;10781;50.928;4.440;2022-11-20T06:38:43;5.30;99.90
21246;DHT22;10781;50.928;4.440;2022-11-20T06:41:15;5.40;99.90
21246;DHT22;10781;50.928;4.440;2022-11-20T06:43:41;5.40;99.90
21246;DHT22;10781;50.928;4.440;2022-11-20T06:46:08;5.40;99.90
21246;DHT22;10781;50.928;4.440;2022-11-20T06:48:34;5.60;99.90
21246;DHT22;10781;50.928;4.440;2022-11-20T06:50:59;5.60;99.90
21246;DHT22;10781;50.928;4.440;2022-11-20T06:53:27;5.70;99.90
21246;DHT22;10781;50.928;4.440;2022-11-20T06:55:56;5.80;99.90
21246;DHT22;10781;50.928;4.440;2022-11-20T06:58:23;5.80;99.90
21246;DHT22;10781;50.928;4.440;2022-11-20T07:00:49;5.80;99.90
21246;DHT22;10781;50.928;4.440;2022-11-20T07:03:15;5.90;99.90
21246;DHT22;10781;50.928;4.440;2022-11-20T07:05:41;6.00;99.90
21246;DHT22;10781;50.928;4.440;2022-11-20T07:08:06;6.40;99.90
21246;DHT22;10781;50.928;4.440;2022-11-20T07:10:32;6.70;99.90
21246;DHT22;10781;50.928;4.440;2022-11-20T07:12:58;6.90;99.90
21246;DHT22;10781;50.928;4.440;2022-11-20T07:15:28;6.90;99.90
21246;DHT22;10781;50.928;4.440;2022-11-20T07:17:54;7.00;99.90
21246;DHT22;10781;50.928;4.440;2022-11-20T07:20:20;7.10;99.90
21246;DHT22;10781;50.928;4.440;2022-11-20T07:22:45;7.00;99.90
21246;DHT22;10781;50.928;4.440;2022-11-20T07:25:11;6.90;99.90
21246;DHT22;10781;50.928;4.440;2022-11-20T07:27:37;7.00;99.90
21246;DHT22;10781;50.928;4.440;2022-11-20T07:30:03;6.90;99.90
21246;DHT22;10781;50.928;4.440;2022-11-20T07:32:29;6.50;99.90
21246;DHT22;10781;50.928;4.440;2022-11-20T07:34:55;6.30;99.90
21246;DHT22;10781;50.928;4.440;2022-11-20T07:37:21;6.10;99.90
21246;DHT22;10781;50.928;4.440;2022-11-20T07:39:46;6.00;99.90
21246;DHT22;10781;50.928;4.440;2022-11-20T07:42:12;5.90;99.90
21246;DHT22;10781;50.928;4.440;2022-11-20T07:44:38;6.00;99.90
21246;DHT22;10781;50.928;4.440;2022-11-20T07:47:04;5.80;99.90
21246;DHT22;10781;50.928;4.440;2022-11-20T07:49:30;5.80;99.90
21246;DHT22;10781;50.928;4.440;2022-11-20T07:51:55;5.80;99.90
21246;DHT22;10781;50.928;4.440;2022-11-20T07:54:22;5.90;99.90
21246;DHT22;10781;50.928;4.440;2022-11-20T07:56:50;6.00;99.90
21246;DHT22;10781;50.928;4.440;2022-11-20T07:59:16;6.10;99.90
21246;DHT22;10781;50.928;4.440;2022-11-20T08:01:42;6.20;99.90
21246;DHT22;10781;50.928;4.440;2022-11-20T08:04:09;6.10;99.90
21246;DHT22;10781;50.928;4.440;2022-11-20T08:06:35;6.20;99.90
21246;DHT22;10781;50.928;4.440;2022-11-20T08:09:01;6.30;99.90
21246;DHT22;10781;50.928;4.440;2022-11-20T08:11:26;6.30;99.90
21246;DHT22;10781;50.928;4.440;2022-11-20T08:14:11;6.20;99.90
21246;DHT22;10781;50.928;4.440;2022-11-20T08:16:40;6.00;99.90
21246;DHT22;10781;50.928;4.440;2022-11-20T08:19:07;6.00;99.90
21246;DHT22;10781;50.928;4.440;2022-11-20T08:21:33;6.10;99.90
21246;DHT22;10781;50.928;4.440;2022-11-20T08:23:59;6.20;99.90
21246;DHT22;10781;50.928;4.440;2022-11-20T08:26:25;6.20;99.90
21246;DHT22;10781;50.928;4.440;2022-11-20T08:28:55;6.10;99.90
21246;DHT22;10781;50.928;4.440;2022-11-20T08:31:22;6.10;99.90
21246;DHT22;10781;50.928;4.440;2022-11-20T08:33:48;6.20;99.90
21246;DHT22;10781;50.928;4.440;2022-11-20T08:36:14;6.20;99.90
21246;DHT22;10781;50.928;4.440;2022-11-20T08:38:40;6.40;99.90
21246;DHT22;10781;50.928;4.440;2022-11-20T08:41:06;6.40;99.90
21246;DHT22;10781;50.928;4.440;2022-11-20T08:43:55;6.60;99.90
21246;DHT22;10781;50.928;4.440;2022-11-20T08:46:22;6.50;99.90
21246;DHT22;10781;50.928;4.440;2022-11-20T08:48:48;6.40;99.90
21246;DHT22;10781;50.928;4.440;2022-11-20T08:51:14;6.40;99.90
21246;DHT22;10781;50.928;4.440;2022-11-20T08:53:40;6.40;99.90
21246;DHT22;10781;50.928;4.440;2022-11-20T08:56:06;6.50;99.90
21246;DHT22;10781;50.928;4.440;2022-11-20T08:58:32;6.50;99.90
21246;DHT22;10781;50.928;4.440;2022-11-20T09:00:57;6.50;99.90
21246;DHT22;10781;50.928;4.440;2022-11-20T09:03:23;6.60;99.90
21246;DHT22;10781;50.928;4.440;2022-11-20T09:05:49;6.60;99.90
21246;DHT22;10781;50.928;4.440;2022-11-20T09:08:15;6.90;99.90
21246;DHT22;10781;50.928;4.440;2022-11-20T09:10:40;7.00;99.90
21246;DHT22;10781;50.928;4.440;2022-11-20T09:13:06;7.10;99.90
21246;DHT22;10781;50.928;4.440;2022-11-20T09:15:32;7.20;99.90
21246;DHT22;10781;50.928;4.440;2022-11-20T09:18:01;7.60;99.90
21246;DHT22;10781;50.928;4.440;2022-11-20T09:20:28;7.50;99.90
21246;DHT22;10781;50.928;4.440;2022-11-20T09:22:55;7.50;99.90
21246;DHT22;10781;50.928;4.440;2022-11-20T09:25:21;7.50;99.90
21246;DHT22;10781;50.928;4.440;2022-11-20T09:27:47;7.40;99.90
21246;DHT22;10781;50.928;4.440;2022-11-20T09:30:16;7.10;99.90
21246;DHT22;10781;50.928;4.440;2022-11-20T09:32:42;7.30;99.90
21246;DHT22;10781;50.928;4.440;2022-11-20T09:35:10;7.30;99.90
21246;DHT22;10781;50.928;4.440;2022-11-20T09:37:35;7.20;99.90
21246;DHT22;10781;50.928;4.440;2022-11-20T09:40:01;7.30;99.90
21246;DHT22;10781;50.928;4.440;2022-11-20T09:42:47;7.30;99.90
21246;DHT22;10781;50.928;4.440;2022-11-20T09:54:21;7.60;99.90
21246;DHT22;10781;50.928;4.440;2022-11-20T09:56:59;7.70;99.90
21246;DHT22;10781;50.928;4.440;2022-11-20T09:59:39;7.80;99.90
21246;DHT22;10781;50.928;4.440;2022-11-20T10:02:37;7.80;99.90
21246;DHT22;10781;50.928;4.440;2022-11-20T10:05:19;7.80;99.90
21246;DHT22;10781;50.928;4.440;2022-11-20T10:10:34;8.00;99.90
21246;DHT22;10781;50.928;4.440;2022-11-20T10:13:17;8.10;99.90
21246;DHT22;10781;50.928;4.440;2022-11-20T10:18:49;8.30;99.90
21246;DHT22;10781;50.928;4.440;2022-11-20T10:29:43;8.60;99.90
21246;DHT22;10781;50.928;4.440;2022-11-20T10:32:14;8.60;99.90
21246;DHT22;10781;50.928;4.440;2022-11-20T10:35:13;8.60;99.90
21246;DHT22;10781;50.928;4.440;2022-11-20T10:37:44;8.70;99.90
21246;DHT22;10781;50.928;4.440;2022-11-20T10:40:18;9.00;99.90
21246;DHT22;10781;50.928;4.440;2022-11-20T10:43:13;9.00;99.90
21246;DHT22;10781;50.928;4.440;2022-11-20T10:45:56;9.00;99.90
21246;DHT22;10781;50.928;4.440;2022-11-20T10:48:25;9.10;99.90
21246;DHT22;10781;50.928;4.440;2022-11-20T10:51:10;9.30;99.90
21246;DHT22;10781;50.928;4.440;2022-11-20T11:01:40;10.90;99.90
21246;DHT22;10781;50.928;4.440;2022-11-20T11:04:28;11.30;99.90
21246;DHT22;10781;50.928;4.440;2022-11-20T11:07:01;11.50;99.90
21246;DHT22;10781;50.928;4.440;2022-11-20T11:09:35;11.70;99.90
21246;DHT22;10781;50.928;4.440;2022-11-20T11:12:10;11.80;99.90
21246;DHT22;10781;50.928;4.440;2022-11-20T11:15:11;11.70;99.90
21246;DHT22;10781;50.928;4.440;2022-11-20T11:17:46;11.90;99.90
21246;DHT22;10781;50.928;4.440;2022-11-20T11:20:17;11.80;99.90
21246;DHT22;10781;50.928;4.440;2022-11-20T11:22:54;11.80;99.90
21246;DHT22;10781;50.928;4.440;2022-11-20T11:25:35;11.60;99.90
21246;DHT22;10781;50.928;4.440;2022-11-20T11:30:44;11.40;99.90
21246;DHT22;10781;50.928;4.440;2022-11-20T11:33:12;11.30;99.90
21246;DHT22;10781;50.928;4.440;2022-11-20T11:35:54;11.30;99.90
21246;DHT22;10781;50.928;4.440;2022-11-20T11:38:35;11.40;99.90
21246;DHT22;10781;50.928;4.440;2022-11-20T11:41:02;11.40;99.90
21246;DHT22;10781;50.928;4.440;2022-11-20T11:43:31;11.40;99.90
21246;DHT22;10781;50.928;4.440;2022-11-20T11:46:33;11.40;99.90
21246;DHT22;10781;50.928;4.440;2022-11-20T11:49:16;11.30;99.90
21246;DHT22;10781;50.928;4.440;2022-11-20T11:52:16;11.40;99.90
21246;DHT22;10781;50.928;4.440;2022-11-20T11:55:01;11.40;99.90
21246;DHT22;10781;50.928;4.440;2022-11-20T12:00:02;11.10;99.90
21246;DHT22;10781;50.928;4.440;2022-11-20T12:05:28;11.00;99.90
21246;DHT22;10781;50.928;4.440;2022-11-20T12:07:59;10.90;99.90
21246;DHT22;10781;50.928;4.440;2022-11-20T12:13:01;10.70;99.90
21246;DHT22;10781;50.928;4.440;2022-11-20T12:15:31;10.60;99.90
21246;DHT22;10781;50.928;4.440;2022-11-20T12:17:58;10.30;99.90
21246;DHT22;10781;50.928;4.440;2022-11-20T12:20:32;10.30;99.90
21246;DHT22;10781;50.928;4.440;2022-11-20T12:25:55;10.10;99.90
21246;DHT22;10781;50.928;4.440;2022-11-20T12:28:37;10.00;99.90
21246;DHT22;10781;50.928;4.440;2022-11-20T12:31:31;9.90;99.90
21246;DHT22;10781;50.928;4.440;2022-11-20T12:34:26;9.80;99.90
21246;DHT22;10781;50.928;4.440;2022-11-20T12:37:00;9.50;99.90
21246;DHT22;10781;50.928;4.440;2022-11-20T12:39:43;9.50;99.90
21246;DHT22;10781;50.928;4.440;2022-11-20T12:42:32;9.50;99.90
21246;DHT22;10781;50.928;4.440;2022-11-20T12:45:30;9.60;99.90
21246;DHT22;10781;50.928;4.440;2022-11-20T12:48:28;9.60;99.90
21246;DHT22;10781;50.928;4.440;2022-11-20T12:56:46;9.40;99.90
21246;DHT22;10781;50.928;4.440;2022-11-20T13:01:58;9.40;99.90
21246;DHT22;10781;50.928;4.440;2022-11-20T13:06:58;9.20;99.90
21246;DHT22;10781;50.928;4.440;2022-11-20T13:09:26;9.30;99.90
21246;DHT22;10781;50.928;4.440;2022-11-20T13:12:06;9.50;99.90
21246;DHT22;10781;50.928;4.440;2022-11-20T13:17:14;9.50;99.90
21246;DHT22;10781;50.928;4.440;2022-11-20T13:19:54;9.40;99.90
21246;DHT22;10781;50.928;4.440;2022-11-20T13:22:43;9.40;99.90
21246;DHT22;10781;50.928;4.440;2022-11-20T13:25:10;9.30;99.90
21246;DHT22;10781;50.928;4.440;2022-11-20T13:27:36;9.30;99.90
21246;DHT22;10781;50.928;4.440;2022-11-20T13:30:14;9.20;99.90
21246;DHT22;10781;50.928;4.440;2022-11-20T13:33:08;9.10;99.90
21246;DHT22;10781;50.928;4.440;2022-11-20T13:35:35;9.20;99.90
21246;DHT22;10781;50.928;4.440;2022-11-20T13:38:08;9.20;99.90
21246;DHT22;10781;50.928;4.440;2022-11-20T13:40:39;9.30;99.90
21246;DHT22;10781;50.928;4.440;2022-11-20T13:43:37;9.10;99.90
21246;DHT22;10781;50.928;4.440;2022-11-20T13:46:09;9.10;99.90
21246;DHT22;10781;50.928;4.440;2022-11-20T13:48:43;9.00;99.90
21246;DHT22;10781;50.928;4.440;2022-11-20T13:59:46;9.20;99.90
21246;DHT22;10781;50.928;4.440;2022-11-20T14:02:16;9.30;99.90
21246;DHT22;10781;50.928;4.440;2022-11-20T14:04:48;9.50;99.90
21246;DHT22;10781;50.928;4.440;2022-11-20T14:07:16;9.40;99.90
21246;DHT22;10781;50.928;4.440;2022-11-20T14:09:53;9.40;99.90
21246;DHT22;10781;50.928;4.440;2022-11-20T14:12:23;9.50;99.90
21246;DHT22;10781;50.928;4.440;2022-11-20T14:14:53;9.60;99.90
21246;DHT22;10781;50.928;4.440;2022-11-20T14:19:50;9.50;99.90
21246;DHT22;10781;50.928;4.440;2022-11-20T14:22:19;9.50;99.90
21246;DHT22;10781;50.928;4.440;2022-11-20T14:24:47;9.60;99.90
21246;DHT22;10781;50.928;4.440;2022-11-20T14:27:18;9.50;99.90
21246;DHT22;10781;50.928;4.440;2022-11-20T14:29:46;9.50;99.90
21246;DHT22;10781;50.928;4.440;2022-11-20T14:32:17;9.50;99.90
21246;DHT22;10781;50.928;4.440;2022-11-20T14:34:46;9.40;99.90
21246;DHT22;10781;50.928;4.440;2022-11-20T14:37:18;9.30;99.90
21246;DHT22;10781;50.928;4.440;2022-11-20T14:39:53;9.20;99.90
21246;DHT22;10781;50.928;4.440;2022-11-20T14:42:27;9.30;99.90
21246;DHT22;10781;50.928;4.440;2022-11-20T14:44:55;9.20;99.90
21246;DHT22;10781;50.928;4.440;2022-11-20T14:47:23;9.20;99.90
21246;DHT22;10781;50.928;4.440;2022-11-20T14:49:51;9.30;99.90
21246;DHT22;10781;50.928;4.440;2022-11-20T14:52:20;9.40;99.90
21246;DHT22;10781;50.928;4.440;2022-11-20T14:54:50;9.40;99.90
21246;DHT22;10781;50.928;4.440;2022-11-20T14:59:51;9.60;99.90
21246;DHT22;10781;50.928;4.440;2022-11-20T15:02:17;9.40;99.90
21246;DHT22;10781;50.928;4.440;2022-11-20T15:05:09;9.50;99.90
21246;DHT22;10781;50.928;4.440;2022-11-20T15:07:37;9.30;99.90
21246;DHT22;10781;50.928;4.440;2022-11-20T15:10:08;9.20;99.90
21246;DHT22;10781;50.928;4.440;2022-11-20T15:12:46;9.30;99.90
21246;DHT22;10781;50.928;4.440;2022-11-20T15:15:16;9.20;99.90
21246;DHT22;10781;50.928;4.440;2022-11-20T15:17:43;9.00;99.90
21246;DHT22;10781;50.928;4.440;2022-11-20T15:20:14;9.00;99.90
21246;DHT22;10781;50.928;4.440;2022-11-20T15:22:41;9.00;99.90
21246;DHT22;10781;50.928;4.440;2022-11-20T15:25:14;9.10;99.90
21246;DHT22;10781;50.928;4.440;2022-11-20T15:27:41;9.20;99.90
21246;DHT22;10781;50.928;4.440;2022-11-20T15:30:17;9.20;99.90
21246;DHT22;10781;50.928;4.440;2022-11-20T15:32:44;9.10;99.90
21246;DHT22;10781;50.928;4.440;2022-11-20T15:35:10;9.20;99.90
21246;DHT22;10781;50.928;4.440;2022-11-20T15:37:39;9.20;99.90
21246;DHT22;10781;50.928;4.440;2022-11-20T15:40:06;9.20;99.90
21246;DHT22;10781;50.928;4.440;2022-11-20T15:42:33;9.20;99.90
21246;DHT22;10781;50.928;4.440;2022-11-20T15:45:00;9.20;99.90
21246;DHT22;10781;50.928;4.440;2022-11-20T15:47:28;9.20;99.90
21246;DHT22;10781;50.928;4.440;2022-11-20T15:49:55;9.10;99.90
21246;DHT22;10781;50.928;4.440;2022-11-20T15:52:22;9.10;99.90
21246;DHT22;10781;50.928;4.440;2022-11-20T15:54:48;9.20;99.90
21246;DHT22;10781;50.928;4.440;2022-11-20T15:57:14;9.20;99.90
21246;DHT22;10781;50.928;4.440;2022-11-20T15:59:40;9.20;99.90
21246;DHT22;10781;50.928;4.440;2022-11-20T16:02:11;9.20;99.90
21246;DHT22;10781;50.928;4.440;2022-11-20T16:04:37;9.10;99.90
21246;DHT22;10781;50.928;4.440;2022-11-20T16:07:03;9.20;99.90
21246;DHT22;10781;50.928;4.440;2022-11-20T16:09:29;9.20;99.90
21246;DHT22;10781;50.928;4.440;2022-11-20T16:11:55;9.20;99.90
21246;DHT22;10781;50.928;4.440;2022-11-20T16:14:20;9.10;99.90
21246;DHT22;10781;50.928;4.440;2022-11-20T16:17:05;9.00;99.90
21246;DHT22;10781;50.928;4.440;2022-11-20T16:19:32;9.00;99.90
21246;DHT22;10781;50.928;4.440;2022-11-20T16:21:58;9.10;99.90
21246;DHT22;10781;50.928;4.440;2022-11-20T16:24:26;9.00;99.90
21246;DHT22;10781;50.928;4.440;2022-11-20T16:26:53;9.10;99.90
21246;DHT22;10781;50.928;4.440;2022-11-20T16:29:19;9.00;99.90
21246;DHT22;10781;50.928;4.440;2022-11-20T16:31:44;9.00;99.90
21246;DHT22;10781;50.928;4.440;2022-11-20T16:34:10;9.00;99.90
21246;DHT22;10781;50.928;4.440;2022-11-20T16:36:39;8.90;99.90
21246;DHT22;10781;50.928;4.440;2022-11-20T16:39:05;8.90;99.90
21246;DHT22;10781;50.928;4.440;2022-11-20T16:41:33;8.90;99.90
21246;DHT22;10781;50.928;4.440;2022-11-20T16:44:00;9.00;99.90
21246;DHT22;10781;50.928;4.440;2022-11-20T16:46:29;9.00;99.90
21246;DHT22;10781;50.928;4.440;2022-11-20T16:49:00;9.10;99.90
21246;DHT22;10781;50.928;4.440;2022-11-20T16:51:27;9.20;99.90
21246;DHT22;10781;50.928;4.440;2022-11-20T16:53:53;9.20;99.90
21246;DHT22;10781;50.928;4.440;2022-11-20T16:56:24;9.10;99.90
21246;DHT22;10781;50.928;4.440;2022-11-20T16:58:50;9.20;99.90
21246;DHT22;10781;50.928;4.440;2022-11-20T17:01:19;9.10;99.90
21246;DHT22;10781;50.928;4.440;2022-11-20T17:03:46;9.00;99.90
21246;DHT22;10781;50.928;4.440;2022-11-20T17:06:19;8.90;99.90
21246;DHT22;10781;50.928;4.440;2022-11-20T17:08:46;8.90;99.90
21246;DHT22;10781;50.928;4.440;2022-11-20T17:11:14;9.00;99.90
21246;DHT22;10781;50.928;4.440;2022-11-20T17:13:41;9.10;99.90
21246;DHT22;10781;50.928;4.440;2022-11-20T17:16:09;9.00;99.90
21246;DHT22;10781;50.928;4.440;2022-11-20T17:18:36;8.90;99.90
21246;DHT22;10781;50.928;4.440;2022-11-20T17:21:02;8.90;99.90
21246;DHT22;10781;50.928;4.440;2022-11-20T17:23:36;9.00;99.90
21246;DHT22;10781;50.928;4.440;2022-11-20T17:26:04;8.80;99.90